Time;durP1;ratioP1;P1;durP2;ratioP2;P2;SDS_P1;SDS_P2;PMS_P1;PMS_P2;Temp;Humidity;BMP_temperature;BMP_pressure;BME280_temperature;BME280_humidity;BME280_pressure;Samples;Min_cycle;Max_cycle;Signal;HPM_P1;HPM_P2
2023/09/09 00:02:40;;;;;;;7.67;6.90;;;24.60;90.10;;;;;;6036470;23;20453;-84
2023/09/09 00:05:35;;;;;;;6.93;6.10;;;24.50;90.10;;;;;;6037473;23;20418;-84
2023/09/09 00:08:50;;;;;;;7.50;6.80;;;24.40;90.10;;;;;;6038985;23;20831;-84
2023/09/09 00:14:08;;;;;;;7.23;6.63;;;24.50;90.00;;;;;;6039740;23;20421;-87
2023/09/09 00:16:59;;;;;;;6.90;6.40;;;24.50;90.00;;;;;;6037780;23;20474;-85
2023/09/09 00:20:21;;;;;;;8.07;6.63;;;24.50;90.10;;;;;;6033992;23;20402;-85
2023/09/09 00:23:12;;;;;;;8.00;6.80;;;24.70;89.10;;;;;;6032274;23;20446;-84
2023/09/09 00:26:22;;;;;;;6.60;6.10;;;24.70;90.30;;;;;;5974775;23;20395;-83
2023/09/09 00:29:10;;;;;;;7.07;6.47;;;24.70;90.20;;;;;;6034105;23;20450;-84
2023/09/09 00:32:25;;;;;;;7.30;6.37;;;24.50;90.00;;;;;;6038120;23;20448;-84
2023/09/09 00:35:10;;;;;;;6.73;6.23;;;24.40;91.20;;;;;;6036254;23;20422;-85
2023/09/09 00:37:51;;;;;;;7.97;7.27;;;24.20;91.40;;;;;;6035812;23;20438;-85
2023/09/09 00:40:54;;;;;;;6.73;6.13;;;23.90;91.90;;;;;;6025613;23;20454;-85
2023/09/09 00:43:53;;;;;;;7.30;6.60;;;23.80;92.20;;;;;;6037362;23;20406;-84
2023/09/09 00:46:51;;;;;;;7.70;7.10;;;23.80;92.40;;;;;;6041213;23;20422;-85
2023/09/09 00:49:55;;;;;;;6.70;6.10;;;23.70;91.90;;;;;;6049650;23;20450;-83
2023/09/09 00:55:47;;;;;;;7.87;7.07;;;23.90;90.80;;;;;;6068900;23;20423;-84
2023/09/09 01:02:11;;;;;;;6.40;5.90;;;23.70;90.90;;;;;;6070710;23;20465;-85
2023/09/09 01:05:23;;;;;;;6.10;5.60;;;23.60;91.10;;;;;;6069711;23;20512;-83
2023/09/09 01:08:02;;;;;;;6.70;6.13;;;23.60;91.00;;;;;;6071836;23;20449;-85
2023/09/09 01:10:58;;;;;;;;;;;;;;;;;;;;;
2023/09/09 01:17:56;;;;;;;6.97;6.27;;;23.80;90.80;;;;;;6070593;23;20365;-86
2023/09/09 01:20:40;;;;;;;6.67;6.07;;;23.60;91.00;;;;;;6060649;23;20472;-85
2023/09/09 01:23:38;;;;;;;7.57;6.60;;;23.40;91.70;;;;;;6046260;23;20483;-84
2023/09/09 01:26:32;;;;;;;7.03;6.43;;;23.50;92.30;;;;;;6035481;23;20433;-84
2023/09/09 01:29:24;;;;;;;7.67;6.10;;;23.30;92.40;;;;;;6081286;23;20481;-84
2023/09/09 01:32:06;;;;;;;7.50;6.80;;;23.20;93.00;;;;;;6082251;23;21097;-84
2023/09/09 01:34:52;;;;;;;8.17;5.97;;;23.10;93.20;;;;;;6079298;23;20414;-81
2023/09/09 01:37:40;;;;;;;6.40;5.90;;;23.10;93.10;;;;;;6068108;23;20504;-84
2023/09/09 01:40:31;;;;;;;6.10;5.60;;;23.10;93.10;;;;;;6080832;23;20469;-84
2023/09/09 01:43:08;;;;;;;7.13;6.30;;;23.10;93.40;;;;;;6065405;23;20484;-84
2023/09/09 01:46:13;;;;;;;7.10;6.50;;;23.20;93.20;;;;;;6066213;23;20408;-84
2023/09/09 01:49:00;;;;;;;6.13;5.63;;;23.00;93.60;;;;;;6067935;23;20499;-84
2023/09/09 01:51:48;;;;;;;5.57;5.07;;;23.00;93.90;;;;;;6058283;23;20437;-83
2023/09/09 01:54:51;;;;;;;6.93;6.33;;;23.10;93.10;;;;;;6066085;23;20465;-81
2023/09/09 01:57:44;;;;;;;6.53;6.03;;;23.00;92.60;;;;;;6067466;23;20417;-84
2023/09/09 02:00:37;;;;;;;6.97;5.80;;;22.90;92.90;;;;;;6068254;23;20421;-84
2023/09/09 02:03:37;;;;;;;6.40;5.73;;;22.80;92.90;;;;;;6061302;23;20444;-83
2023/09/09 02:06:36;;;;;;;7.50;6.80;;;22.70;93.20;;;;;;6078385;23;20421;-84
2023/09/09 02:09:25;;;;;;;7.70;5.93;;;22.70;93.70;;;;;;6073789;23;20473;-82
2023/09/09 02:12:21;;;;;;;6.77;6.17;;;22.60;93.90;;;;;;6075050;23;20961;-86
2023/09/09 02:15:11;;;;;;;6.37;5.87;;;22.60;94.10;;;;;;6082450;23;20413;-84
2023/09/09 02:18:09;;;;;;;6.10;5.50;;;22.60;94.10;;;;;;6083827;23;20415;-86
2023/09/09 02:21:06;;;;;;;7.13;6.50;;;22.60;93.90;;;;;;6077171;23;20445;-86
2023/09/09 02:23:55;;;;;;;6.77;6.20;;;22.60;94.00;;;;;;6066583;23;20444;-85
2023/09/09 02:26:40;;;;;;;6.90;6.30;;;22.60;94.10;;;;;;6073107;23;20418;-84
2023/09/09 02:29:27;;;;;;;6.80;6.30;;;22.60;94.10;;;;;;6074480;23;20430;-85
2023/09/09 02:32:28;;;;;;;;;;;;;;;;;;;;;
2023/09/09 02:35:15;;;;;;;6.70;6.10;;;22.60;93.90;;;;;;6081096;23;20405;-86
2023/09/09 02:42:41;;;;;;;7.17;6.37;;;22.60;94.10;;;;;;5981291;23;20469;-86
2023/09/09 02:45:20;;;;;;;7.43;6.07;;;22.60;94.00;;;;;;6079924;23;20436;-86
2023/09/09 02:48:08;;;;;;;6.50;6.00;;;22.60;94.00;;;;;;6079434;23;20424;-86
2023/09/09 02:53:37;;;;;;;7.90;6.40;;;22.60;94.20;;;;;;6069272;23;20489;-84
2023/09/09 02:56:36;;;;;;;7.23;6.63;;;22.80;94.20;;;;;;6075042;23;20425;-84
2023/09/09 02:59:39;;;;;;;;;;;;;;;;;;;;;
2023/09/09 03:07:53;;;;;;;;;;;;;;;;;;;;;
2023/09/09 03:11:02;;;;;;;6.40;5.90;;;22.60;94.90;;;;;;5941691;24;20451;-85
2023/09/09 03:24:08;;;;;;;7.90;6.10;;;22.10;94.90;;;;;;6004474;23;20389;-84
2023/09/09 03:27:08;;;;;;;8.30;6.37;;;21.90;95.30;;;;;;5953575;23;20812;-84
2023/09/09 03:30:09;;;;;;;6.90;6.30;;;21.90;95.40;;;;;;5981660;23;20473;-83
2023/09/09 03:32:47;;;;;;;6.73;6.20;;;22.10;94.90;;;;;;6010550;23;20435;-83
2023/09/09 03:35:34;;;;;;;6.97;6.27;;;22.10;94.80;;;;;;6024567;23;20443;-85
2023/09/09 03:38:25;;;;;;;6.60;5.90;;;21.90;95.00;;;;;;6052727;23;20452;-85
2023/09/09 03:43:44;;;;;;;7.60;6.90;;;21.50;95.90;;;;;;6059073;23;20449;-84
2023/09/09 03:46:51;;;;;;;;;;;;;;;;;;;;;
2023/09/09 03:52:31;;;;;;;6.20;5.60;;;21.30;96.50;;;;;;6031192;23;20439;-83
2023/09/09 03:55:17;;;;;;;7.27;6.63;;;21.20;97.00;;;;;;5990353;23;20426;-84
2023/09/09 03:58:17;;;;;;;5.90;5.40;;;21.10;97.20;;;;;;5989836;23;20459;-84
2023/09/09 04:01:32;;;;;;;7.70;7.10;;;21.20;97.10;;;;;;5990301;23;20469;-84
2023/09/09 04:04:19;;;;;;;6.97;6.47;;;21.40;97.00;;;;;;5990518;23;20419;-85
2023/09/09 04:10:12;;;;;;;7.50;6.80;;;21.50;97.20;;;;;;6006657;23;20496;-85
2023/09/09 04:12:53;;;;;;;6.90;6.27;;;21.50;96.90;;;;;;5980285;23;20491;-84
2023/09/09 04:15:39;;;;;;;6.60;6.10;;;21.60;96.90;;;;;;5982279;23;20482;-84
2023/09/09 04:18:29;;;;;;;7.00;6.30;;;21.70;96.50;;;;;;5981122;23;20417;-84
2023/09/09 04:21:14;;;;;;;7.00;6.40;;;21.60;96.50;;;;;;5985320;23;20521;-83
2023/09/09 04:24:03;;;;;;;6.63;6.03;;;21.40;96.60;;;;;;5983889;23;20940;-84
2023/09/09 04:27:01;;;;;;;6.33;5.63;;;21.40;96.80;;;;;;5978194;23;20406;-83
2023/09/09 04:29:44;;;;;;;7.33;5.80;;;21.50;96.60;;;;;;5979649;23;20458;-84
2023/09/09 04:32:34;;;;;;;;;;;;;;;;;;;;;
2023/09/09 04:35:24;;;;;;;7.43;6.77;;;21.50;96.70;;;;;;6004796;23;20415;-84
2023/09/09 04:44:00;;;;;;;7.10;6.50;;;21.70;96.70;;;;;;6033712;23;20498;-83
2023/09/09 04:46:41;;;;;;;7.70;6.70;;;21.60;97.00;;;;;;6011542;23;20490;-84
2023/09/09 04:49:25;;;;;;;7.50;6.80;;;21.50;97.10;;;;;;6014398;23;20450;-84
2023/09/09 04:52:00;;;;;;;6.67;6.17;;;21.40;97.50;;;;;;6028400;23;20436;-84
2023/09/09 04:55:14;;;;;;;7.30;6.70;;;21.20;97.50;;;;;;5947931;23;20883;-82
2023/09/09 04:58:38;;;;;;;8.83;6.90;;;21.20;97.80;;;;;;5966337;23;20407;-85
2023/09/09 05:01:42;;;;;;;7.87;7.17;;;21.20;97.80;;;;;;5992129;23;20419;-85
2023/09/09 05:04:48;;;;;;;7.23;6.57;;;21.20;97.70;;;;;;5995479;23;20411;-85
2023/09/09 05:07:41;;;;;;;7.53;6.83;;;21.30;97.80;;;;;;5994016;23;20857;-83
2023/09/09 05:10:53;;;;;;;7.80;7.07;;;21.30;97.60;;;;;;5994420;23;20519;-84
2023/09/09 05:14:00;;;;;;;7.07;6.47;;;21.30;97.20;;;;;;5978491;23;20458;-84
2023/09/09 05:16:44;;;;;;;7.23;6.63;;;21.40;97.20;;;;;;5986371;23;20414;-86
2023/09/09 05:19:34;;;;;;;6.87;6.17;;;21.40;97.20;;;;;;5988159;23;20403;-85
2023/09/09 05:22:04;;;;;;;7.10;6.43;;;21.30;97.20;;;;;;5984052;23;20756;-82
2023/09/09 05:24:30;;;;;;;6.97;6.33;;;21.20;97.40;;;;;;6009191;23;20419;-82
2023/09/09 05:26:59;;;;;;;7.20;6.60;;;21.10;97.70;;;;;;6012999;23;20485;-82
2023/09/09 05:29:26;;;;;;;7.77;7.00;;;21.00;97.80;;;;;;6014064;23;20503;-81
2023/09/09 05:31:53;;;;;;;7.90;7.10;;;21.00;97.70;;;;;;5985954;23;20432;-81
2023/09/09 05:34:19;;;;;;;7.60;6.87;;;20.90;97.60;;;;;;6006903;23;20419;-82
2023/09/09 05:36:46;;;;;;;7.67;7.03;;;20.90;97.70;;;;;;5981974;23;20472;-84
2023/09/09 05:39:13;;;;;;;6.87;6.20;;;20.80;97.70;;;;;;5960241;23;20411;-82
2023/09/09 05:41:39;;;;;;;8.60;6.07;;;21.00;98.00;;;;;;6007715;23;20439;-82
2023/09/09 05:44:06;;;;;;;6.40;5.80;;;21.00;97.80;;;;;;5980694;23;20415;-84
2023/09/09 05:46:33;;;;;;;6.70;6.10;;;21.10;97.70;;;;;;6005282;23;20407;-82
2023/09/09 05:49:00;;;;;;;7.77;7.03;;;21.10;97.60;;;;;;6018109;23;20482;-82
2023/09/09 05:51:26;;;;;;;7.70;6.60;;;21.10;97.70;;;;;;6019808;23;20419;-82
2023/09/09 05:53:53;;;;;;;6.67;6.03;;;21.20;97.70;;;;;;6015906;23;20391;-81
2023/09/09 05:56:20;;;;;;;7.47;6.03;;;21.10;97.80;;;;;;6016120;23;20411;-82
2023/09/09 05:58:47;;;;;;;7.03;6.33;;;21.00;97.70;;;;;;6015418;23;20427;-85
2023/09/09 06:01:13;;;;;;;6.60;6.00;;;21.20;97.70;;;;;;5989104;23;20550;-82
2023/09/09 06:03:40;;;;;;;6.77;6.17;;;21.30;97.20;;;;;;5986363;23;20443;-82
2023/09/09 06:06:07;;;;;;;6.93;6.33;;;21.30;97.10;;;;;;6009821;23;20419;-82
2023/09/09 06:08:33;;;;;;;9.80;6.80;;;21.40;97.10;;;;;;6007922;23;20924;-82
2023/09/09 06:11:00;;;;;;;7.83;7.20;;;23.00;96.40;;;;;;5981892;23;20410;-82
2023/09/09 06:13:27;;;;;;;6.30;5.73;;;25.40;92.00;;;;;;6003196;23;20435;-82
2023/09/09 06:15:53;;;;;;;6.20;5.70;;;26.80;85.00;;;;;;5979582;23;20419;-83
2023/09/09 06:18:21;;;;;;;6.17;5.67;;;28.00;79.50;;;;;;6004552;23;20420;-84
2023/09/09 06:20:48;;;;;;;6.30;5.80;;;28.50;73.60;;;;;;6003870;23;20488;-83
2023/09/09 06:23:15;;;;;;;6.40;5.90;;;29.00;70.70;;;;;;5981900;23;20445;-83
2023/09/09 06:25:42;;;;;;;6.30;5.80;;;29.80;66.00;;;;;;6004687;23;20471;-81
2023/09/09 06:28:08;;;;;;;5.90;5.40;;;30.20;64.30;;;;;;6007056;23;20419;-82
2023/09/09 06:30:35;;;;;;;6.33;5.73;;;30.30;63.40;;;;;;6007735;23;20535;-83
2023/09/09 06:33:04;;;;;;;6.60;6.10;;;30.70;61.00;;;;;;5978005;23;20975;-83
2023/09/09 06:35:30;;;;;;;6.10;5.60;;;30.80;60.10;;;;;;6001916;23;20419;-82
2023/09/09 06:37:57;;;;;;;7.07;6.47;;;30.80;59.80;;;;;;5978864;23;20510;-83
2023/09/09 06:40:24;;;;;;;6.53;5.93;;;30.70;59.70;;;;;;5977512;23;20590;-83
2023/09/09 06:42:50;;;;;;;7.33;6.73;;;31.60;58.30;;;;;;5975142;23;21201;-84
2023/09/09 06:45:17;;;;;;;6.00;5.50;;;31.90;57.40;;;;;;5976664;23;20433;-82
2023/09/09 06:47:45;;;;;;;6.50;6.00;;;32.40;56.00;;;;;;6004339;23;20444;-82
2023/09/09 06:50:12;;;;;;;10.90;6.17;;;32.40;55.80;;;;;;6001237;23;20829;-82
2023/09/09 06:52:39;;;;;;;6.60;6.00;;;32.20;55.40;;;;;;5999864;23;21365;-83
2023/09/09 06:55:07;;;;;;;6.87;6.30;;;31.80;55.80;;;;;;5976595;23;20629;-83
2023/09/09 06:57:34;;;;;;;6.33;5.83;;;30.60;57.30;;;;;;6001028;23;20748;-83
2023/09/09 07:00:05;;;;;;;6.43;5.83;;;29.30;60.20;;;;;;6008812;23;20422;-84
2023/09/09 07:02:32;;;;;;;6.07;5.57;;;28.90;61.20;;;;;;5986552;23;20784;-82
2023/09/09 07:04:58;;;;;;;6.40;5.90;;;27.80;65.10;;;;;;6011009;23;20419;-83
2023/09/09 07:07:25;;;;;;;7.77;7.00;;;28.20;66.70;;;;;;6012659;23;20423;-81
2023/09/09 07:09:55;;;;;;;7.33;6.63;;;28.70;64.90;;;;;;5986948;23;20921;-84
2023/09/09 07:12:22;;;;;;;6.63;6.03;;;29.50;63.10;;;;;;6011438;23;20531;-81
2023/09/09 07:14:48;;;;;;;7.20;6.50;;;30.00;61.20;;;;;;6009292;23;20415;-82
2023/09/09 07:17:15;;;;;;;6.90;6.07;;;31.40;58.90;;;;;;5978389;23;20788;-84
2023/09/09 07:19:42;;;;;;;6.30;5.77;;;32.30;56.00;;;;;;6002842;23;20423;-82
2023/09/09 07:22:09;;;;;;;8.03;7.33;;;32.60;55.70;;;;;;5979043;23;20435;-82
2023/09/09 07:24:35;;;;;;;7.07;6.53;;;33.10;54.50;;;;;;6003116;23;20426;-83
2023/09/09 07:27:03;;;;;;;8.13;7.37;;;33.40;53.40;;;;;;6002547;23;20419;-82
2023/09/09 07:29:30;;;;;;;6.80;6.20;;;33.70;53.00;;;;;;6003040;23;21012;-84
2023/09/09 07:31:57;;;;;;;6.63;6.07;;;34.30;51.70;;;;;;5959749;23;20439;-83
2023/09/09 07:34:24;;;;;;;6.50;6.00;;;34.70;50.80;;;;;;5986737;23;20436;-82
2023/09/09 07:36:51;;;;;;;5.90;5.40;;;35.10;50.20;;;;;;6010668;23;20411;-83
2023/09/09 07:39:18;;;;;;;5.90;5.40;;;35.20;49.60;;;;;;6010593;23;20415;-82
2023/09/09 07:41:44;;;;;;;6.83;6.10;;;34.90;49.50;;;;;;6003918;23;20451;-84
2023/09/09 07:44:11;;;;;;;6.57;6.07;;;34.90;49.50;;;;;;6007367;23;20491;-81
2023/09/09 07:46:38;;;;;;;7.00;6.30;;;35.10;49.60;;;;;;5979972;23;20438;-84
2023/09/09 07:49:05;;;;;;;6.60;6.07;;;35.20;48.80;;;;;;6005206;23;20757;-84
2023/09/09 07:51:32;;;;;;;7.03;6.20;;;35.20;48.80;;;;;;5977769;23;20440;-82
2023/09/09 07:53:58;;;;;;;6.90;6.30;;;35.50;48.50;;;;;;6003400;23;20410;-81
2023/09/09 07:56:25;;;;;;;6.87;6.37;;;35.70;47.80;;;;;;5978642;23;20422;-86
2023/09/09 07:58:52;;;;;;;6.83;6.23;;;35.40;47.90;;;;;;6002136;23;20443;-82
2023/09/09 08:01:19;;;;;;;7.60;6.93;;;34.70;48.70;;;;;;6003618;23;20443;-85
2023/09/09 08:03:46;;;;;;;6.53;6.03;;;34.30;49.60;;;;;;6005861;23;20499;-81
2023/09/09 08:06:13;;;;;;;6.90;6.30;;;34.10;50.00;;;;;;6005927;23;20411;-83
2023/09/09 08:08:39;;;;;;;7.50;6.67;;;34.30;49.70;;;;;;5980919;23;20412;-82
2023/09/09 08:11:06;;;;;;;7.90;7.27;;;34.20;50.10;;;;;;6004278;23;20451;-82
2023/09/09 08:13:33;;;;;;;6.67;6.17;;;33.80;50.70;;;;;;6005408;23;20431;-83
2023/09/09 08:15:59;;;;;;;7.23;6.63;;;33.60;51.20;;;;;;6005584;23;20420;-82
2023/09/09 08:18:26;;;;;;;7.47;6.87;;;33.50;51.10;;;;;;6006896;23;20765;-84
2023/09/09 08:20:53;;;;;;;6.97;6.47;;;33.90;51.20;;;;;;6005963;23;20491;-83
2023/09/09 08:23:22;;;;;;;6.73;6.23;;;34.20;50.00;;;;;;6005401;23;20439;-82
2023/09/09 08:25:49;;;;;;;6.90;6.20;;;34.40;50.20;;;;;;6004267;23;20407;-82
2023/09/09 08:28:15;;;;;;;6.80;6.23;;;34.80;49.50;;;;;;6004853;23;20466;-82
2023/09/09 08:30:45;;;;;;;6.73;6.10;;;35.50;48.60;;;;;;5977797;23;20474;-82
2023/09/09 08:33:11;;;;;;;7.03;6.53;;;35.60;48.10;;;;;;6004178;23;20499;-83
2023/09/09 08:35:38;;;;;;;6.60;6.00;;;36.30;47.10;;;;;;6005164;23;20403;-82
2023/09/09 08:38:05;;;;;;;7.23;6.67;;;36.30;46.70;;;;;;6003823;23;20997;-83
2023/09/09 08:40:40;;;;;;;6.77;6.27;;;36.50;46.20;;;;;;5983338;23;20419;-81
2023/09/09 08:43:19;;;;;;;7.53;6.93;;;36.00;47.10;;;;;;6004346;23;20441;-83
2023/09/09 08:45:53;;;;;;;6.90;6.30;;;35.80;47.60;;;;;;6032939;23;20437;-82
2023/09/09 08:48:23;;;;;;;6.47;5.90;;;36.00;47.50;;;;;;6032973;23;20379;-81
2023/09/09 08:50:52;;;;;;;7.13;6.53;;;35.80;47.10;;;;;;6005795;23;21154;-82
2023/09/09 08:53:21;;;;;;;6.90;6.30;;;33.50;50.10;;;;;;6034956;23;20431;-82
2023/09/09 08:55:48;;;;;;;7.60;7.00;;;31.70;54.00;;;;;;6035673;23;20410;-82
2023/09/09 08:58:15;;;;;;;7.20;6.60;;;30.60;56.80;;;;;;6033190;23;20419;-84
2023/09/09 09:00:41;;;;;;;9.27;6.97;;;29.70;58.40;;;;;;6030624;23;21288;-82
2023/09/09 09:03:09;;;;;;;8.30;7.50;;;28.90;60.90;;;;;;6004277;23;20442;-82
2023/09/09 09:05:38;;;;;;;8.60;7.10;;;28.40;63.40;;;;;;6006139;23;20425;-83
2023/09/09 09:08:06;;;;;;;7.70;7.00;;;29.40;64.20;;;;;;6004623;23;20418;-82
2023/09/09 09:10:33;;;;;;;7.63;6.43;;;31.40;58.00;;;;;;6032878;23;20442;-84
2023/09/09 09:13:00;;;;;;;7.40;6.80;;;32.80;54.90;;;;;;6032169;23;20473;-82
2023/09/09 09:15:32;;;;;;;7.53;6.83;;;33.60;53.10;;;;;;6031569;23;20419;-84
2023/09/09 09:18:00;;;;;;;7.47;6.80;;;34.30;51.70;;;;;;6032692;23;20410;-82
2023/09/09 09:20:28;;;;;;;6.60;6.10;;;34.20;51.40;;;;;;6032321;23;20415;-82
2023/09/09 09:23:00;;;;;;;6.40;5.90;;;33.70;51.70;;;;;;6006742;23;20439;-83
2023/09/09 09:25:28;;;;;;;6.67;6.07;;;33.20;52.30;;;;;;6034046;23;20428;-83
2023/09/09 09:27:57;;;;;;;6.30;5.80;;;33.60;52.20;;;;;;6033554;23;20414;-82
2023/09/09 09:30:25;;;;;;;7.27;6.67;;;34.70;50.60;;;;;;6032495;23;20446;-82
2023/09/09 09:32:56;;;;;;;6.90;6.30;;;35.20;49.70;;;;;;6005660;23;20493;-82
2023/09/09 09:35:24;;;;;;;7.23;6.53;;;35.40;49.10;;;;;;6006152;23;20415;-81
2023/09/09 09:38:02;;;;;;;6.20;5.70;;;34.40;50.20;;;;;;6032502;23;20407;-83
2023/09/09 09:40:30;;;;;;;6.40;5.80;;;34.90;50.30;;;;;;6005116;23;20406;-81
2023/09/09 09:42:56;;;;;;;7.43;6.83;;;36.10;48.30;;;;;;6015774;23;20534;-84
2023/09/09 09:45:29;;;;;;;7.73;6.20;;;36.20;47.50;;;;;;6005439;23;20419;-83
2023/09/09 09:47:58;;;;;;;7.43;6.73;;;36.40;47.30;;;;;;5978618;23;20415;-82
2023/09/09 09:50:30;;;;;;;7.87;7.17;;;36.60;46.90;;;;;;6003774;23;20467;-83
2023/09/09 09:52:59;;;;;;;7.10;6.50;;;36.30;46.80;;;;;;6004350;23;20562;-83
2023/09/09 09:55:28;;;;;;;6.83;6.10;;;36.20;47.20;;;;;;6003695;23;20426;-82
2023/09/09 09:58:06;;;;;;;6.50;5.97;;;36.20;47.00;;;;;;5977736;23;20458;-84
2023/09/09 10:00:33;;;;;;;6.70;6.20;;;36.10;47.30;;;;;;6002693;23;20897;-83
2023/09/09 10:03:02;;;;;;;7.17;6.57;;;36.10;47.30;;;;;;6001845;23;20467;-83
2023/09/09 10:05:29;;;;;;;6.13;5.73;;;36.70;46.90;;;;;;5999397;23;20729;-81
2023/09/09 10:08:07;;;;;;;9.43;6.60;;;37.30;45.70;;;;;;5979771;23;20421;-82
2023/09/09 10:10:35;;;;;;;7.17;6.57;;;36.50;45.90;;;;;;6001810;23;20445;-81
2023/09/09 10:13:09;;;;;;;6.27;5.70;;;36.80;46.30;;;;;;6006963;23;20427;-81
2023/09/09 10:15:36;;;;;;;7.03;6.33;;;37.00;45.60;;;;;;6015459;23;20412;-80
2023/09/09 10:18:05;;;;;;;7.37;5.93;;;36.60;46.30;;;;;;6009969;23;20395;-82
2023/09/09 10:20:34;;;;;;;6.30;5.80;;;36.30;46.20;;;;;;6006699;23;20426;-85
2023/09/09 10:23:02;;;;;;;7.70;6.00;;;36.70;46.20;;;;;;6007998;23;20692;-82
2023/09/09 10:25:33;;;;;;;10.23;6.27;;;36.50;46.20;;;;;;5983724;23;20398;-82
2023/09/09 10:28:01;;;;;;;6.80;5.30;;;36.70;45.80;;;;;;6005592;23;20526;-84
2023/09/09 10:30:30;;;;;;;7.70;6.40;;;36.30;46.00;;;;;;6005091;23;20443;-84
2023/09/09 10:33:00;;;;;;;8.60;7.00;;;36.10;46.40;;;;;;5985757;23;20435;-84
2023/09/09 10:35:29;;;;;;;6.33;5.73;;;36.10;46.90;;;;;;5987065;23;20458;-83
2023/09/09 10:38:16;;;;;;;6.60;6.00;;;36.10;46.60;;;;;;5978582;23;20411;-85
2023/09/09 10:41:27;;;;;;;6.80;6.23;;;35.80;47.00;;;;;;5990597;23;20407;-86
2023/09/09 10:44:04;;;;;;;6.47;5.87;;;35.50;47.50;;;;;;6000973;23;20403;-86
2023/09/09 10:47:25;;;;;;;10.00;6.70;;;35.80;47.30;;;;;;6005375;23;20529;-86
2023/09/09 10:50:05;;;;;;;6.80;6.10;;;35.80;47.80;;;;;;6005902;23;20459;-86
2023/09/09 10:53:09;;;;;;;8.00;6.40;;;36.00;47.20;;;;;;6026124;23;20531;-85
2023/09/09 10:56:23;;;;;;;6.40;5.90;;;35.90;47.50;;;;;;6001131;23;20431;-84
2023/09/09 10:59:44;;;;;;;6.27;5.53;;;36.20;47.00;;;;;;5996248;23;20419;-86
2023/09/09 11:02:25;;;;;;;9.70;5.90;;;36.00;47.00;;;;;;5978032;23;20454;-85
2023/09/09 11:05:25;;;;;;;6.70;6.10;;;35.70;47.50;;;;;;5999638;23;20411;-83
2023/09/09 11:08:38;;;;;;;6.93;5.97;;;35.40;47.90;;;;;;6001273;23;20404;-85
2023/09/09 11:11:50;;;;;;;6.60;6.00;;;35.10;48.70;;;;;;6002119;23;20455;-85
2023/09/09 11:14:37;;;;;;;8.23;5.50;;;34.90;48.90;;;;;;6003402;23;20430;-86
2023/09/09 11:17:33;;;;;;;6.90;6.30;;;35.10;49.00;;;;;;5996031;23;20416;-82
2023/09/09 11:20:18;;;;;;;7.13;5.83;;;35.30;48.80;;;;;;6008474;23;20443;-85
2023/09/09 11:23:06;;;;;;;6.20;5.60;;;35.30;49.10;;;;;;5982788;23;20956;-85
2023/09/09 11:26:07;;;;;;;6.53;5.80;;;35.40;48.90;;;;;;5982529;23;21350;-85
2023/09/09 11:28:51;;;;;;;7.50;5.60;;;35.50;48.50;;;;;;5978788;23;20513;-83
2023/09/09 11:34:40;;;;;;;9.30;5.90;;;35.80;48.20;;;;;;6036148;23;20442;-85
2023/09/09 11:37:48;;;;;;;7.73;5.90;;;35.80;48.00;;;;;;6037651;23;20414;-85
2023/09/09 11:41:04;;;;;;;9.97;6.40;;;36.10;47.60;;;;;;5907981;24;20491;-84
2023/09/09 11:44:28;;;;;;;7.40;6.07;;;36.20;47.80;;;;;;6020995;23;20408;-87
2023/09/09 11:47:34;;;;;;;7.80;5.80;;;36.00;47.80;;;;;;5995429;23;20418;-84
2023/09/09 11:50:38;;;;;;;9.20;5.57;;;35.70;48.40;;;;;;5991022;23;20426;-86
2023/09/09 11:53:12;;;;;;;7.93;6.00;;;35.70;48.60;;;;;;5990403;23;20446;-85
2023/09/09 11:56:06;;;;;;;7.93;6.10;;;35.60;48.70;;;;;;5992573;23;20522;-85
2023/09/09 11:58:45;;;;;;;6.50;5.80;;;35.60;48.80;;;;;;5992226;23;20474;-85
2023/09/09 12:01:51;;;;;;;7.73;5.10;;;35.40;48.90;;;;;;5993258;23;20699;-86
2023/09/09 12:05:04;;;;;;;5.40;4.90;;;35.50;49.30;;;;;;5992061;23;20563;-85
2023/09/09 12:08:04;;;;;;;7.77;6.03;;;35.70;49.00;;;;;;5962419;23;20395;-86
2023/09/09 12:11:20;;;;;;;7.60;5.63;;;35.10;49.70;;;;;;5994904;23;20453;-84
2023/09/09 12:14:15;;;;;;;8.20;6.43;;;35.50;49.70;;;;;;5991490;23;20419;-85
2023/09/09 12:16:58;;;;;;;6.50;5.03;;;35.70;48.90;;;;;;6018899;23;20415;-86
2023/09/09 12:19:42;;;;;;;7.17;5.33;;;35.80;48.90;;;;;;5992021;23;20411;-84
2023/09/09 12:22:40;;;;;;;7.67;5.30;;;35.80;48.80;;;;;;5999983;23;20427;-85
2023/09/09 12:25:53;;;;;;;6.00;4.50;;;36.30;47.60;;;;;;5981777;23;20490;-85
2023/09/09 12:32:23;;;;;;;7.63;4.77;;;35.70;48.40;;;;;;6023919;23;20452;-85
2023/09/09 12:35:18;;;;;;;11.30;5.50;;;35.80;48.50;;;;;;6071103;23;20391;-86
2023/09/09 12:38:05;;;;;;;7.50;5.10;;;36.40;47.80;;;;;;6068114;23;20413;-85
2023/09/09 12:41:12;;;;;;;6.80;5.00;;;37.90;45.00;;;;;;6056304;23;20476;-84
2023/09/09 12:43:55;;;;;;;5.20;4.50;;;37.70;45.00;;;;;;6021649;23;20466;-83
2023/09/09 12:46:58;;;;;;;9.50;4.97;;;37.30;45.60;;;;;;6041177;23;20397;-85
2023/09/09 12:49:54;;;;;;;7.07;5.00;;;37.30;46.20;;;;;;6041203;23;20401;-84
2023/09/09 12:53:08;;;;;;;5.33;4.80;;;37.70;45.40;;;;;;6015599;23;20490;-85
2023/09/09 12:55:58;;;;;;;9.20;5.03;;;37.70;45.20;;;;;;6043933;23;20407;-85
2023/09/09 12:58:58;;;;;;;8.67;5.10;;;37.40;44.90;;;;;;6036232;23;20486;-85
2023/09/09 13:01:30;;;;;;;5.30;4.57;;;36.80;46.10;;;;;;6043629;23;20493;-85
2023/09/09 13:07:19;;;;;;;5.13;4.60;;;36.40;46.30;;;;;;6044379;23;20498;-86
2023/09/09 13:09:59;;;;;;;10.50;5.53;;;36.50;46.20;;;;;;6041593;23;20413;-85
2023/09/09 13:12:38;;;;;;;9.20;4.87;;;36.40;46.10;;;;;;6037578;23;20631;-84
2023/09/09 13:15:17;;;;;;;10.73;4.30;;;36.80;45.20;;;;;;6040489;23;20444;-84
2023/09/09 13:18:06;;;;;;;6.50;3.60;;;36.70;44.60;;;;;;6036782;23;20398;-84
2023/09/09 13:20:42;;;;;;;6.70;3.90;;;36.70;44.80;;;;;;6040614;23;20497;-84
2023/09/09 13:23:33;;;;;;;5.80;3.40;;;37.00;44.40;;;;;;6041347;23;20441;-87
2023/09/09 13:26:11;;;;;;;6.80;3.63;;;36.90;44.40;;;;;;6037727;23;20437;-85
2023/09/09 13:28:55;;;;;;;5.03;3.90;;;36.80;44.70;;;;;;6038276;23;20412;-86
2023/09/09 13:31:31;;;;;;;6.83;4.00;;;36.80;44.80;;;;;;6034894;23;20461;-85
2023/09/09 13:34:02;;;;;;;8.33;3.77;;;36.80;44.30;;;;;;6036597;23;20505;-85
2023/09/09 13:36:52;;;;;;;9.17;4.23;;;37.00;44.40;;;;;;6020726;23;20406;-86
2023/09/09 13:39:43;;;;;;;5.67;4.40;;;37.40;43.70;;;;;;6036409;23;20422;-84
2023/09/09 13:42:33;;;;;;;10.17;4.23;;;36.80;44.40;;;;;;6032642;23;20446;-85
2023/09/09 13:45:06;;;;;;;6.40;4.20;;;36.70;44.40;;;;;;6035111;23;20429;-85
2023/09/09 13:47:52;;;;;;;11.37;4.97;;;36.60;44.80;;;;;;6032692;23;20413;-85
2023/09/09 13:50:38;;;;;;;7.60;3.80;;;36.70;44.50;;;;;;6034088;23;20426;-84
2023/09/09 13:53:13;;;;;;;8.80;4.40;;;36.50;44.40;;;;;;6034544;23;20501;-84
2023/09/09 13:55:45;;;;;;;8.40;4.47;;;36.60;44.10;;;;;;6032010;23;20418;-84
2023/09/09 13:58:18;;;;;;;6.07;3.93;;;36.90;43.70;;;;;;6031429;23;20394;-84
2023/09/09 14:01:51;;;;;;;8.57;4.13;;;36.60;43.80;;;;;;6028558;23;20406;-85
2023/09/09 14:04:25;;;;;;;6.33;3.63;;;36.60;43.70;;;;;;6032603;23;20505;-84
2023/09/09 14:06:56;;;;;;;6.07;3.70;;;36.70;42.30;;;;;;6033118;23;20496;-83
2023/09/09 14:09:45;;;;;;;9.97;4.33;;;36.50;41.90;;;;;;6033287;23;20506;-86
2023/09/09 14:12:27;;;;;;;8.70;4.03;;;36.30;42.10;;;;;;6029925;23;20941;-85
2023/09/09 14:15:18;;;;;;;6.63;4.40;;;36.30;42.70;;;;;;6031880;23;20472;-86
2023/09/09 14:18:00;;;;;;;7.50;4.13;;;36.10;42.50;;;;;;6037547;23;20435;-85
2023/09/09 14:21:00;;;;;;;7.83;4.30;;;36.40;42.70;;;;;;6026310;23;20478;-85
2023/09/09 14:23:40;;;;;;;6.00;3.77;;;36.30;43.40;;;;;;6031355;23;20438;-84
2023/09/09 14:26:19;;;;;;;6.67;3.63;;;36.90;42.60;;;;;;6030736;23;20418;-84
2023/09/09 14:28:54;;;;;;;8.73;5.00;;;37.10;42.70;;;;;;6033200;23;20771;-84
2023/09/09 14:31:43;;;;;;;10.00;4.17;;;36.70;43.20;;;;;;6031821;23;20469;-85
2023/09/09 14:34:20;;;;;;;11.87;5.10;;;36.10;44.10;;;;;;6033548;23;20447;-84
2023/09/09 14:36:57;;;;;;;9.20;4.10;;;35.90;44.40;;;;;;6033258;23;20425;-84
2023/09/09 14:39:37;;;;;;;7.37;4.40;;;35.90;44.10;;;;;;6038001;23;20437;-84
2023/09/09 14:42:29;;;;;;;10.43;4.57;;;36.00;44.70;;;;;;6048258;23;20493;-85
2023/09/09 14:45:13;;;;;;;6.20;3.60;;;36.10;45.00;;;;;;6050335;23;20395;-83
2023/09/09 14:48:06;;;;;;;7.17;3.60;;;35.80;44.40;;;;;;6050224;23;20410;-85
2023/09/09 14:50:43;;;;;;;7.47;3.30;;;35.90;44.90;;;;;;6045101;23;20436;-85
2023/09/09 14:53:38;;;;;;;6.53;4.07;;;35.90;45.30;;;;;;6042108;23;20422;-85
2023/09/09 14:56:12;;;;;;;8.97;4.60;;;35.70;45.10;;;;;;6042132;23;20406;-84
2023/09/09 14:58:57;;;;;;;12.10;5.70;;;35.50;44.90;;;;;;6043267;23;20808;-85
2023/09/09 15:01:27;;;;;;;7.83;3.57;;;35.40;44.50;;;;;;6041790;23;20456;-86
2023/09/09 15:04:00;;;;;;;5.20;3.40;;;35.40;44.40;;;;;;6037429;23;20943;-86
2023/09/09 15:06:30;;;;;;;4.93;3.73;;;35.20;43.60;;;;;;6037864;23;20864;-84
2023/09/09 15:09:05;;;;;;;11.10;3.60;;;35.20;44.20;;;;;;6039282;23;20413;-85
2023/09/09 15:11:41;;;;;;;6.00;3.73;;;35.20;43.20;;;;;;6037774;23;20472;-85